sensor_id;sensor_type;location;lat;lon;timestamp;temperature;humidity
40434;DHT22;26146;51.114;5.654;2022-11-20T00:02:51;4.30;99.90
40434;DHT22;26146;51.114;5.654;2022-11-20T00:06:52;4.30;99.90
40434;DHT22;26146;51.114;5.654;2022-11-20T00:10:53;4.30;99.90
40434;DHT22;26146;51.114;5.654;2022-11-20T00:14:54;4.20;99.90
40434;DHT22;26146;51.114;5.654;2022-11-20T00:18:55;4.10;99.90
40434;DHT22;26146;51.114;5.654;2022-11-20T00:22:56;4.40;99.90
40434;DHT22;26146;51.114;5.654;2022-11-20T00:26:56;4.40;99.90
40434;DHT22;26146;51.114;5.654;2022-11-20T00:35:08;4.50;99.90
40434;DHT22;26146;51.114;5.654;2022-11-20T00:39:09;4.40;99.90
40434;DHT22;26146;51.114;5.654;2022-11-20T00:43:10;4.40;99.90
40434;DHT22;26146;51.114;5.654;2022-11-20T00:47:11;4.50;99.90
40434;DHT22;26146;51.114;5.654;2022-11-20T00:51:17;4.60;99.90
40434;DHT22;26146;51.114;5.654;2022-11-20T00:55:18;4.40;99.90
40434;DHT22;26146;51.114;5.654;2022-11-20T00:59:19;4.40;99.90
40434;DHT22;26146;51.114;5.654;2022-11-20T01:03:20;4.40;99.90
40434;DHT22;26146;51.114;5.654;2022-11-20T01:07:21;4.40;99.90
40434;DHT22;26146;51.114;5.654;2022-11-20T01:11:28;4.50;99.90
40434;DHT22;26146;51.114;5.654;2022-11-20T01:15:29;4.60;99.90
40434;DHT22;26146;51.114;5.654;2022-11-20T01:19:30;4.60;99.90
40434;DHT22;26146;51.114;5.654;2022-11-20T01:23:32;4.00;99.90
40434;DHT22;26146;51.114;5.654;2022-11-20T01:27:33;4.00;99.90
40434;DHT22;26146;51.114;5.654;2022-11-20T01:31:36;3.90;99.90
40434;DHT22;26146;51.114;5.654;2022-11-20T01:35:37;3.60;99.90
40434;DHT22;26146;51.114;5.654;2022-11-20T01:39:38;3.50;99.90
40434;DHT22;26146;51.114;5.654;2022-11-20T01:43:39;3.40;99.90
40434;DHT22;26146;51.114;5.654;2022-11-20T01:47:46;3.30;99.90
40434;DHT22;26146;51.114;5.654;2022-11-20T01:51:52;3.50;99.90
40434;DHT22;26146;51.114;5.654;2022-11-20T01:55:55;3.60;99.90
40434;DHT22;26146;51.114;5.654;2022-11-20T02:00:03;3.70;99.90
40434;DHT22;26146;51.114;5.654;2022-11-20T02:04:04;3.70;99.90
40434;DHT22;26146;51.114;5.654;2022-11-20T02:08:06;3.80;99.90
40434;DHT22;26146;51.114;5.654;2022-11-20T02:12:07;3.80;99.90
40434;DHT22;26146;51.114;5.654;2022-11-20T02:16:35;3.80;99.90
40434;DHT22;26146;51.114;5.654;2022-11-20T02:20:38;3.80;99.90
40434;DHT22;26146;51.114;5.654;2022-11-20T02:24:41;3.80;99.90
40434;DHT22;26146;51.114;5.654;2022-11-20T02:28:44;3.90;99.90
40434;DHT22;26146;51.114;5.654;2022-11-20T02:32:47;3.90;99.90
40434;DHT22;26146;51.114;5.654;2022-11-20T02:36:49;3.90;99.90
40434;DHT22;26146;51.114;5.654;2022-11-20T02:40:51;3.80;99.90
40434;DHT22;26146;51.114;5.654;2022-11-20T02:44:52;3.90;99.90
40434;DHT22;26146;51.114;5.654;2022-11-20T02:48:53;3.90;99.90
40434;DHT22;26146;51.114;5.654;2022-11-20T02:52:54;3.90;99.90
40434;DHT22;26146;51.114;5.654;2022-11-20T02:56:55;3.80;99.90
40434;DHT22;26146;51.114;5.654;2022-11-20T03:00:56;3.90;99.90
40434;DHT22;26146;51.114;5.654;2022-11-20T03:04:57;3.90;99.90
40434;DHT22;26146;51.114;5.654;2022-11-20T03:08:58;4.00;99.90
40434;DHT22;26146;51.114;5.654;2022-11-20T03:12:59;4.10;99.90
40434;DHT22;26146;51.114;5.654;2022-11-20T03:17:02;4.10;99.90
40434;DHT22;26146;51.114;5.654;2022-11-20T03:21:03;4.30;99.90
40434;DHT22;26146;51.114;5.654;2022-11-20T03:25:07;4.20;99.90
40434;DHT22;26146;51.114;5.654;2022-11-20T03:29:08;4.30;99.90
40434;DHT22;26146;51.114;5.654;2022-11-20T03:33:09;4.20;99.90
40434;DHT22;26146;51.114;5.654;2022-11-20T03:37:10;4.40;99.90
40434;DHT22;26146;51.114;5.654;2022-11-20T03:41:18;4.40;99.90
40434;DHT22;26146;51.114;5.654;2022-11-20T03:45:19;4.50;99.90
40434;DHT22;26146;51.114;5.654;2022-11-20T03:49:20;4.50;99.90
40434;DHT22;26146;51.114;5.654;2022-11-20T03:53:21;4.50;99.90
40434;DHT22;26146;51.114;5.654;2022-11-20T03:57:22;4.50;99.90
40434;DHT22;26146;51.114;5.654;2022-11-20T04:01:25;4.40;99.90
40434;DHT22;26146;51.114;5.654;2022-11-20T04:05:27;4.40;99.90
40434;DHT22;26146;51.114;5.654;2022-11-20T04:09:27;4.30;99.90
40434;DHT22;26146;51.114;5.654;2022-11-20T04:13:28;4.30;99.90
40434;DHT22;26146;51.114;5.654;2022-11-20T04:17:29;4.40;99.90
40434;DHT22;26146;51.114;5.654;2022-11-20T04:21:30;4.50;99.90
40434;DHT22;26146;51.114;5.654;2022-11-20T04:25:31;4.50;99.90
40434;DHT22;26146;51.114;5.654;2022-11-20T04:29:32;4.60;99.90
40434;DHT22;26146;51.114;5.654;2022-11-20T04:33:33;4.70;99.90
40434;DHT22;26146;51.114;5.654;2022-11-20T04:37:34;4.60;99.90
40434;DHT22;26146;51.114;5.654;2022-11-20T04:41:36;4.60;99.90
40434;DHT22;26146;51.114;5.654;2022-11-20T04:45:37;4.70;99.90
40434;DHT22;26146;51.114;5.654;2022-11-20T04:49:37;4.70;99.90
40434;DHT22;26146;51.114;5.654;2022-11-20T04:53:38;4.80;99.90
40434;DHT22;26146;51.114;5.654;2022-11-20T04:57:39;4.80;99.90
40434;DHT22;26146;51.114;5.654;2022-11-20T05:01:40;4.80;99.90
40434;DHT22;26146;51.114;5.654;2022-11-20T05:05:41;4.90;99.90
40434;DHT22;26146;51.114;5.654;2022-11-20T05:09:42;4.90;99.90
40434;DHT22;26146;51.114;5.654;2022-11-20T05:13:43;5.00;99.90
40434;DHT22;26146;51.114;5.654;2022-11-20T05:17:48;5.10;99.90
40434;DHT22;26146;51.114;5.654;2022-11-20T05:21:50;5.00;99.90
40434;DHT22;26146;51.114;5.654;2022-11-20T05:25:55;5.10;99.90
40434;DHT22;26146;51.114;5.654;2022-11-20T05:29:56;5.10;99.90
40434;DHT22;26146;51.114;5.654;2022-11-20T05:33:57;5.10;99.90
40434;DHT22;26146;51.114;5.654;2022-11-20T05:37:58;5.00;99.90
40434;DHT22;26146;51.114;5.654;2022-11-20T05:41:59;5.00;99.90
40434;DHT22;26146;51.114;5.654;2022-11-20T05:46:20;5.10;99.90
40434;DHT22;26146;51.114;5.654;2022-11-20T05:50:21;5.00;99.90
40434;DHT22;26146;51.114;5.654;2022-11-20T05:54:22;5.00;99.90
40434;DHT22;26146;51.114;5.654;2022-11-20T05:58:25;5.10;99.90
40434;DHT22;26146;51.114;5.654;2022-11-20T06:02:29;5.00;99.90
40434;DHT22;26146;51.114;5.654;2022-11-20T06:06:30;5.10;99.90
40434;DHT22;26146;51.114;5.654;2022-11-20T06:10:31;5.10;99.90
40434;DHT22;26146;51.114;5.654;2022-11-20T06:14:32;5.00;99.90
40434;DHT22;26146;51.114;5.654;2022-11-20T06:18:33;4.90;99.90
40434;DHT22;26146;51.114;5.654;2022-11-20T06:22:34;5.00;99.90
40434;DHT22;26146;51.114;5.654;2022-11-20T06:26:37;5.10;99.90
40434;DHT22;26146;51.114;5.654;2022-11-20T06:30:59;5.20;99.90
40434;DHT22;26146;51.114;5.654;2022-11-20T06:35:00;5.20;99.90
40434;DHT22;26146;51.114;5.654;2022-11-20T06:39:01;5.10;99.90
40434;DHT22;26146;51.114;5.654;2022-11-20T06:43:01;5.00;99.90
40434;DHT22;26146;51.114;5.654;2022-11-20T06:47:02;5.00;99.90
40434;DHT22;26146;51.114;5.654;2022-11-20T06:51:07;5.10;99.90
40434;DHT22;26146;51.114;5.654;2022-11-20T06:55:08;5.10;99.90
40434;DHT22;26146;51.114;5.654;2022-11-20T06:59:09;5.00;99.90
40434;DHT22;26146;51.114;5.654;2022-11-20T07:03:11;5.00;99.90
40434;DHT22;26146;51.114;5.654;2022-11-20T07:07:13;5.10;99.90
40434;DHT22;26146;51.114;5.654;2022-11-20T07:11:13;5.20;99.90
40434;DHT22;26146;51.114;5.654;2022-11-20T07:15:14;5.20;99.90
40434;DHT22;26146;51.114;5.654;2022-11-20T07:19:16;5.30;99.90
40434;DHT22;26146;51.114;5.654;2022-11-20T07:23:17;5.40;99.90
40434;DHT22;26146;51.114;5.654;2022-11-20T07:27:18;5.30;99.90
40434;DHT22;26146;51.114;5.654;2022-11-20T07:31:19;5.30;99.90
40434;DHT22;26146;51.114;5.654;2022-11-20T07:35:20;5.40;99.90
40434;DHT22;26146;51.114;5.654;2022-11-20T07:39:21;5.40;99.90
40434;DHT22;26146;51.114;5.654;2022-11-20T07:43:22;5.50;99.90
40434;DHT22;26146;51.114;5.654;2022-11-20T07:47:23;5.60;99.90
40434;DHT22;26146;51.114;5.654;2022-11-20T07:51:24;5.60;99.90
40434;DHT22;26146;51.114;5.654;2022-11-20T07:55:26;5.60;99.90
40434;DHT22;26146;51.114;5.654;2022-11-20T07:59:27;5.70;99.90
40434;DHT22;26146;51.114;5.654;2022-11-20T08:03:28;5.70;99.90
40434;DHT22;26146;51.114;5.654;2022-11-20T08:07:29;5.70;99.90
40434;DHT22;26146;51.114;5.654;2022-11-20T08:11:30;5.90;99.90
40434;DHT22;26146;51.114;5.654;2022-11-20T08:15:50;6.20;99.90
40434;DHT22;26146;51.114;5.654;2022-11-20T08:19:54;6.10;99.90
40434;DHT22;26146;51.114;5.654;2022-11-20T08:23:55;6.10;99.90
40434;DHT22;26146;51.114;5.654;2022-11-20T08:27:59;6.20;99.90
40434;DHT22;26146;51.114;5.654;2022-11-20T08:32:01;6.40;99.90
40434;DHT22;26146;51.114;5.654;2022-11-20T08:36:02;6.60;99.90
40434;DHT22;26146;51.114;5.654;2022-11-20T08:40:04;6.60;99.90
40434;DHT22;26146;51.114;5.654;2022-11-20T08:44:07;6.60;99.90
40434;DHT22;26146;51.114;5.654;2022-11-20T08:48:08;6.60;99.90
40434;DHT22;26146;51.114;5.654;2022-11-20T08:52:09;6.60;99.90
40434;DHT22;26146;51.114;5.654;2022-11-20T08:56:10;6.70;99.90
40434;DHT22;26146;51.114;5.654;2022-11-20T09:00:12;6.60;99.90
40434;DHT22;26146;51.114;5.654;2022-11-20T09:04:13;6.60;99.90
40434;DHT22;26146;51.114;5.654;2022-11-20T09:08:15;6.70;99.90
40434;DHT22;26146;51.114;5.654;2022-11-20T09:12:18;7.00;99.90
40434;DHT22;26146;51.114;5.654;2022-11-20T09:16:21;7.00;99.90
40434;DHT22;26146;51.114;5.654;2022-11-20T09:20:22;7.10;99.90
40434;DHT22;26146;51.114;5.654;2022-11-20T09:24:26;7.10;99.90
40434;DHT22;26146;51.114;5.654;2022-11-20T09:28:27;7.00;99.90
40434;DHT22;26146;51.114;5.654;2022-11-20T09:32:28;7.00;99.90
40434;DHT22;26146;51.114;5.654;2022-11-20T09:36:29;7.00;99.90
40434;DHT22;26146;51.114;5.654;2022-11-20T09:40:31;7.20;99.90
40434;DHT22;26146;51.114;5.654;2022-11-20T09:44:53;7.40;99.90
40434;DHT22;26146;51.114;5.654;2022-11-20T09:57:21;7.50;99.90
40434;DHT22;26146;51.114;5.654;2022-11-20T10:01:26;7.40;99.90
40434;DHT22;26146;51.114;5.654;2022-11-20T10:05:42;7.30;99.90
40434;DHT22;26146;51.114;5.654;2022-11-20T10:09:54;7.40;99.90
40434;DHT22;26146;51.114;5.654;2022-11-20T10:18:52;7.50;99.90
40434;DHT22;26146;51.114;5.654;2022-11-20T10:23:05;7.60;99.90
40434;DHT22;26146;51.114;5.654;2022-11-20T10:31:40;7.90;99.90
40434;DHT22;26146;51.114;5.654;2022-11-20T10:40:31;8.10;99.90
40434;DHT22;26146;51.114;5.654;2022-11-20T10:44:34;8.10;99.90
40434;DHT22;26146;51.114;5.654;2022-11-20T10:48:55;8.10;99.90
40434;DHT22;26146;51.114;5.654;2022-11-20T11:01:42;7.90;99.90
40434;DHT22;26146;51.114;5.654;2022-11-20T11:06:08;8.00;99.90
40434;DHT22;26146;51.114;5.654;2022-11-20T11:10:19;8.10;99.90
40434;DHT22;26146;51.114;5.654;2022-11-20T11:14:21;7.80;99.90
40434;DHT22;26146;51.114;5.654;2022-11-20T11:18:33;8.10;99.90
40434;DHT22;26146;51.114;5.654;2022-11-20T11:22:55;8.10;99.90
40434;DHT22;26146;51.114;5.654;2022-11-20T11:30:59;8.40;99.90
40434;DHT22;26146;51.114;5.654;2022-11-20T11:35:03;8.60;99.90
40434;DHT22;26146;51.114;5.654;2022-11-20T11:39:09;8.50;99.90
40434;DHT22;26146;51.114;5.654;2022-11-20T11:43:20;8.30;99.90
40434;DHT22;26146;51.114;5.654;2022-11-20T11:51:59;8.30;99.90
40434;DHT22;26146;51.114;5.654;2022-11-20T11:56:08;8.50;99.90
40434;DHT22;26146;51.114;5.654;2022-11-20T12:00:16;8.40;99.90
40434;DHT22;26146;51.114;5.654;2022-11-20T12:04:37;8.70;99.90
40434;DHT22;26146;51.114;5.654;2022-11-20T12:08:48;8.50;99.90
40434;DHT22;26146;51.114;5.654;2022-11-20T12:13:00;8.60;99.90
40434;DHT22;26146;51.114;5.654;2022-11-20T12:17:02;8.70;99.90
40434;DHT22;26146;51.114;5.654;2022-11-20T12:25:24;9.10;99.90
40434;DHT22;26146;51.114;5.654;2022-11-20T12:34:36;9.30;99.90
40434;DHT22;26146;51.114;5.654;2022-11-20T12:43:14;9.30;99.90
40434;DHT22;26146;51.114;5.654;2022-11-20T12:52:38;9.50;99.90
40434;DHT22;26146;51.114;5.654;2022-11-20T13:10:04;9.70;99.90
40434;DHT22;26146;51.114;5.654;2022-11-20T13:18:39;9.70;99.90
40434;DHT22;26146;51.114;5.654;2022-11-20T13:22:55;9.80;99.90
40434;DHT22;26146;51.114;5.654;2022-11-20T13:31:33;9.60;99.90
40434;DHT22;26146;51.114;5.654;2022-11-20T13:35:35;9.80;99.90
40434;DHT22;26146;51.114;5.654;2022-11-20T13:39:37;9.60;99.90
40434;DHT22;26146;51.114;5.654;2022-11-20T13:43:41;9.50;99.90
40434;DHT22;26146;51.114;5.654;2022-11-20T13:47:48;9.50;99.90
40434;DHT22;26146;51.114;5.654;2022-11-20T13:51:51;9.50;99.90
40434;DHT22;26146;51.114;5.654;2022-11-20T13:56:10;9.50;99.90
40434;DHT22;26146;51.114;5.654;2022-11-20T14:00:18;9.60;99.90
40434;DHT22;26146;51.114;5.654;2022-11-20T14:04:27;9.50;99.90
40434;DHT22;26146;51.114;5.654;2022-11-20T14:08:56;9.50;99.90
40434;DHT22;26146;51.114;5.654;2022-11-20T14:12:57;9.40;99.90
40434;DHT22;26146;51.114;5.654;2022-11-20T14:21:29;9.30;99.90
40434;DHT22;26146;51.114;5.654;2022-11-20T14:25:30;9.20;99.90
40434;DHT22;26146;51.114;5.654;2022-11-20T14:29:35;9.30;99.90
40434;DHT22;26146;51.114;5.654;2022-11-20T14:33:37;9.30;99.90
40434;DHT22;26146;51.114;5.654;2022-11-20T14:37:41;9.10;99.90
40434;DHT22;26146;51.114;5.654;2022-11-20T14:41:52;9.00;99.90
40434;DHT22;26146;51.114;5.654;2022-11-20T14:45:59;9.00;99.90
40434;DHT22;26146;51.114;5.654;2022-11-20T14:50:01;9.20;99.90
40434;DHT22;26146;51.114;5.654;2022-11-20T14:54:28;9.20;99.90
40434;DHT22;26146;51.114;5.654;2022-11-20T14:58:32;9.20;99.90
40434;DHT22;26146;51.114;5.654;2022-11-20T15:02:46;9.40;99.90
40434;DHT22;26146;51.114;5.654;2022-11-20T15:06:52;9.40;99.90
40434;DHT22;26146;51.114;5.654;2022-11-20T15:10:54;9.40;99.90
40434;DHT22;26146;51.114;5.654;2022-11-20T15:14:55;9.30;99.90
40434;DHT22;26146;51.114;5.654;2022-11-20T15:18:56;9.20;99.90
40434;DHT22;26146;51.114;5.654;2022-11-20T15:23:00;9.40;99.90
40434;DHT22;26146;51.114;5.654;2022-11-20T15:27:01;9.40;99.90
40434;DHT22;26146;51.114;5.654;2022-11-20T15:31:01;9.40;99.90
40434;DHT22;26146;51.114;5.654;2022-11-20T15:35:03;9.30;99.90
40434;DHT22;26146;51.114;5.654;2022-11-20T15:39:05;9.10;99.90
40434;DHT22;26146;51.114;5.654;2022-11-20T15:43:07;9.10;99.90
40434;DHT22;26146;51.114;5.654;2022-11-20T15:47:08;9.10;99.90
40434;DHT22;26146;51.114;5.654;2022-11-20T15:55:12;8.90;99.90
40434;DHT22;26146;51.114;5.654;2022-11-20T15:59:15;9.10;99.90
40434;DHT22;26146;51.114;5.654;2022-11-20T16:03:17;9.00;99.90
40434;DHT22;26146;51.114;5.654;2022-11-20T16:07:18;8.90;99.90
40434;DHT22;26146;51.114;5.654;2022-11-20T16:11:19;9.00;99.90
40434;DHT22;26146;51.114;5.654;2022-11-20T16:15:20;8.90;99.90
40434;DHT22;26146;51.114;5.654;2022-11-20T16:19:39;8.90;99.90
40434;DHT22;26146;51.114;5.654;2022-11-20T16:23:41;9.00;99.90
40434;DHT22;26146;51.114;5.654;2022-11-20T16:27:43;8.80;99.90
40434;DHT22;26146;51.114;5.654;2022-11-20T16:31:44;8.80;99.90
40434;DHT22;26146;51.114;5.654;2022-11-20T16:35:47;9.00;99.90
40434;DHT22;26146;51.114;5.654;2022-11-20T16:39:48;9.10;99.90
40434;DHT22;26146;51.114;5.654;2022-11-20T16:43:57;9.10;99.90
40434;DHT22;26146;51.114;5.654;2022-11-20T16:47:58;9.00;99.90
40434;DHT22;26146;51.114;5.654;2022-11-20T16:51:59;9.10;99.90
40434;DHT22;26146;51.114;5.654;2022-11-20T16:56:14;9.10;99.90
40434;DHT22;26146;51.114;5.654;2022-11-20T17:00:16;9.20;99.90
40434;DHT22;26146;51.114;5.654;2022-11-20T17:04:20;9.20;99.90
40434;DHT22;26146;51.114;5.654;2022-11-20T17:08:20;9.20;99.90
40434;DHT22;26146;51.114;5.654;2022-11-20T17:12:24;9.40;99.90
40434;DHT22;26146;51.114;5.654;2022-11-20T17:16:24;9.50;99.90
40434;DHT22;26146;51.114;5.654;2022-11-20T17:20:28;9.40;99.90
40434;DHT22;26146;51.114;5.654;2022-11-20T17:24:32;9.30;99.90
40434;DHT22;26146;51.114;5.654;2022-11-20T17:28:34;9.40;99.90
40434;DHT22;26146;51.114;5.654;2022-11-20T17:32:38;9.50;99.90
40434;DHT22;26146;51.114;5.654;2022-11-20T17:36:39;9.50;99.90
40434;DHT22;26146;51.114;5.654;2022-11-20T17:40:44;9.50;99.90
40434;DHT22;26146;51.114;5.654;2022-11-20T17:44:45;9.70;99.90
40434;DHT22;26146;51.114;5.654;2022-11-20T17:48:47;9.60;99.90
40434;DHT22;26146;51.114;5.654;2022-11-20T17:52:48;9.50;99.90
40434;DHT22;26146;51.114;5.654;2022-11-20T17:56:49;9.40;99.90
40434;DHT22;26146;51.114;5.654;2022-11-20T18:01:09;9.40;99.90
40434;DHT22;26146;51.114;5.654;2022-11-20T18:05:10;9.30;99.90
40434;DHT22;26146;51.114;5.654;2022-11-20T18:09:11;9.40;99.90
40434;DHT22;26146;51.114;5.654;2022-11-20T18:13:12;9.30;99.90
40434;DHT22;26146;51.114;5.654;2022-11-20T18:17:14;9.40;99.90
40434;DHT22;26146;51.114;5.654;2022-11-20T18:21:15;9.30;99.90
40434;DHT22;26146;51.114;5.654;2022-11-20T18:25:16;9.50;99.90
40434;DHT22;26146;51.114;5.654;2022-11-20T18:29:17;9.50;99.90
40434;DHT22;26146;51.114;5.654;2022-11-20T18:33:18;9.60;99.90
40434;DHT22;26146;51.114;5.654;2022-11-20T18:37:19;9.60;99.90
40434;DHT22;26146;51.114;5.654;2022-11-20T18:41:24;9.30;99.90
40434;DHT22;26146;51.114;5.654;2022-11-20T18:45:44;9.30;99.90
40434;DHT22;26146;51.114;5.654;2022-11-20T18:49:48;9.30;99.90
40434;DHT22;26146;51.114;5.654;2022-11-20T18:53:52;9.40;99.90
40434;DHT22;26146;51.114;5.654;2022-11-20T18:57:55;9.40;99.90
40434;DHT22;26146;51.114;5.654;2022-11-20T19:01:56;9.30;99.90
40434;DHT22;26146;51.114;5.654;2022-11-20T19:05:57;9.40;99.90
40434;DHT22;26146;51.114;5.654;2022-11-20T19:09:58;9.40;99.90
40434;DHT22;26146;51.114;5.654;2022-11-20T19:13:59;9.40;99.90
40434;DHT22;26146;51.114;5.654;2022-11-20T19:18:00;9.40;99.90
40434;DHT22;26146;51.114;5.654;2022-11-20T19:22:02;9.20;99.90
40434;DHT22;26146;51.114;5.654;2022-11-20T19:26:04;9.10;99.90
40434;DHT22;26146;51.114;5.654;2022-11-20T19:30:05;9.10;99.90
40434;DHT22;26146;51.114;5.654;2022-11-20T19:34:07;8.90;99.90
40434;DHT22;26146;51.114;5.654;2022-11-20T19:38:08;8.80;99.90
40434;DHT22;26146;51.114;5.654;2022-11-20T19:42:10;8.80;99.90
40434;DHT22;26146;51.114;5.654;2022-11-20T19:46:11;8.90;99.90
40434;DHT22;26146;51.114;5.654;2022-11-20T19:50:14;8.80;99.90
40434;DHT22;26146;51.114;5.654;2022-11-20T19:54:16;8.70;99.90
40434;DHT22;26146;51.114;5.654;2022-11-20T19:58:17;8.80;99.90
40434;DHT22;26146;51.114;5.654;2022-11-20T20:02:18;8.60;99.90
40434;DHT22;26146;51.114;5.654;2022-11-20T20:06:21;8.60;99.90
40434;DHT22;26146;51.114;5.654;2022-11-20T20:10:22;8.60;99.90
40434;DHT22;26146;51.114;5.654;2022-11-20T20:14:24;8.60;99.90
40434;DHT22;26146;51.114;5.654;2022-11-20T20:18:25;8.50;99.90
40434;DHT22;26146;51.114;5.654;2022-11-20T20:22:26;8.50;99.90
40434;DHT22;26146;51.114;5.654;2022-11-20T20:26:29;8.60;99.90
40434;DHT22;26146;51.114;5.654;2022-11-20T20:30:31;8.40;99.90
40434;DHT22;26146;51.114;5.654;2022-11-20T20:34:32;8.40;99.90
40434;DHT22;26146;51.114;5.654;2022-11-20T20:38:33;8.40;99.90
40434;DHT22;26146;51.114;5.654;2022-11-20T20:42:34;8.40;99.90
40434;DHT22;26146;51.114;5.654;2022-11-20T20:46:35;8.50;99.90
40434;DHT22;26146;51.114;5.654;2022-11-20T20:50:36;8.30;99.90
40434;DHT22;26146;51.114;5.654;2022-11-20T20:54:37;8.40;99.90
40434;DHT22;26146;51.114;5.654;2022-11-20T20:58:41;8.40;99.90
40434;DHT22;26146;51.114;5.654;2022-11-20T21:02:42;8.40;99.90
40434;DHT22;26146;51.114;5.654;2022-11-20T21:06:43;8.40;99.90
40434;DHT22;26146;51.114;5.654;2022-11-20T21:10:44;8.30;99.90
40434;DHT22;26146;51.114;5.654;2022-11-20T21:14:45;8.30;99.90
40434;DHT22;26146;51.114;5.654;2022-11-20T21:18:46;8.20;99.90
40434;DHT22;26146;51.114;5.654;2022-11-20T21:22:47;8.30;99.90
40434;DHT22;26146;51.114;5.654;2022-11-20T21:26:48;8.20;99.90
40434;DHT22;26146;51.114;5.654;2022-11-20T21:30:51;8.20;99.90
40434;DHT22;26146;51.114;5.654;2022-11-20T21:34:52;8.20;99.90
40434;DHT22;26146;51.114;5.654;2022-11-20T21:38:54;8.30;99.90
40434;DHT22;26146;51.114;5.654;2022-11-20T21:42:56;8.40;99.90
40434;DHT22;26146;51.114;5.654;2022-11-20T21:46:56;8.40;99.90
40434;DHT22;26146;51.114;5.654;2022-11-20T21:51:09;8.50;99.90
40434;DHT22;26146;51.114;5.654;2022-11-20T21:55:10;8.60;99.90
40434;DHT22;26146;51.114;5.654;2022-11-20T21:59:12;8.60;99.90
40434;DHT22;26146;51.114;5.654;2022-11-20T22:03:13;8.70;99.90
40434;DHT22;26146;51.114;5.654;2022-11-20T22:07:14;8.80;99.90
40434;DHT22;26146;51.114;5.654;2022-11-20T22:11:17;8.70;99.90
40434;DHT22;26146;51.114;5.654;2022-11-20T22:15:19;8.40;99.90
40434;DHT22;26146;51.114;5.654;2022-11-20T22:19:21;8.40;99.90
40434;DHT22;26146;51.114;5.654;2022-11-20T22:23:22;8.40;99.90
40434;DHT22;26146;51.114;5.654;2022-11-20T22:27:23;8.40;99.90
40434;DHT22;26146;51.114;5.654;2022-11-20T22:31:28;8.40;99.90
40434;DHT22;26146;51.114;5.654;2022-11-20T22:35:29;8.50;99.90
40434;DHT22;26146;51.114;5.654;2022-11-20T22:39:30;8.50;99.90
40434;DHT22;26146;51.114;5.654;2022-11-20T22:43:32;8.60;99.90
40434;DHT22;26146;51.114;5.654;2022-11-20T22:47:33;8.70;99.90
40434;DHT22;26146;51.114;5.654;2022-11-20T22:51:37;8.60;99.90
40434;DHT22;26146;51.114;5.654;2022-11-20T22:55:38;8.50;99.90
40434;DHT22;26146;51.114;5.654;2022-11-20T22:59:39;8.60;99.90
40434;DHT22;26146;51.114;5.654;2022-11-20T23:03:43;8.60;99.90
40434;DHT22;26146;51.114;5.654;2022-11-20T23:07:44;8.50;99.90
40434;DHT22;26146;51.114;5.654;2022-11-20T23:11:45;8.50;99.90
40434;DHT22;26146;51.114;5.654;2022-11-20T23:15:46;8.50;99.90
40434;DHT22;26146;51.114;5.654;2022-11-20T23:19:47;8.30;99.90
40434;DHT22;26146;51.114;5.654;2022-11-20T23:23:50;8.30;99.90
40434;DHT22;26146;51.114;5.654;2022-11-20T23:27:51;8.30;99.90
40434;DHT22;26146;51.114;5.654;2022-11-20T23:31:53;8.10;99.90
40434;DHT22;26146;51.114;5.654;2022-11-20T23:35:54;8.20;99.90
40434;DHT22;26146;51.114;5.654;2022-11-20T23:39:55;8.10;99.90
40434;DHT22;26146;51.114;5.654;2022-11-20T23:43:56;8.10;99.90
40434;DHT22;26146;51.114;5.654;2022-11-20T23:47:57;8.10;99.90
40434;DHT22;26146;51.114;5.654;2022-11-20T23:51:58;8.00;99.90
40434;DHT22;26146;51.114;5.654;2022-11-20T23:56:01;8.00;99.90
